Data for 10/30/2008

Time Sea-Level Adjusted Pressure Absolute Pressure Temperature Relative Humidity Dew Point   
(mb) (inHg) (mb) (inHg) (C) (F) (%) (C) (F)
00:05 1019 30.09 848 25.04 8.4 47 37 -5.6 21.9
00:10 1019 30.09 848 25.04 8.7 47.6 36 -5.5 22.2
00:15 1019 30.09 848 25.04 8.3 47 37 -5.5 22.1
00:20 1019 30.09 848 25.04 8.2 46.8 37 -5.5 22.1
00:25 1019 30.09 848 25.04 7.9 46.2 38 -5.6 21.9
00:30 1019 30.09 848 25.04 7.9 46.2 37 -5.9 21.5
00:35 1019 30.09 848 25.04 8.1 46.5 36 -6.1 21
00:40 1019 30.09 848 25.04 8.4 47.2 35 -6 21.2
00:45 1019 30.09 848 25.04 8.2 46.7 37 -5.7 21.8
00:50 1019 30.09 848 25.04 7.8 46.1 38 -5.7 21.7
00:55 1019 30.09 848 25.04 7.7 45.9 38 -5.7 21.7
01:00 1019 30.09 848 25.04 7.6 45.6 39 -5.6 22
01:05 1019 30.09 848 25.04 7.3 45.2 39 -5.8 21.6
01:10 1019 30.09 848 25.04 7.2 44.9 40 -5.5 22.1
01:15 1019 30.09 848 25.04 7.1 44.8 38 -6.4 20.5
01:20 1019 30.09 848 25.04 7.5 45.5 37 -6.2 20.8
01:25 1019 30.09 848 25.04 7.9 46.2 35 -6.6 20.1
01:30 1019 30.09 848 25.04 8.2 46.7 36 -6.1 21
01:35 1019 30.09 848 25.04 7.7 45.9 39 -5.5 22.1
01:40 1019 30.09 848 25.04 7.1 44.8 40 -5.5 22.1
01:45 1019 30.09 848 25.04 6.8 44.2 41 -5.4 22.3
01:50 1019 30.09 848 25.04 6.6 44 41 -5.5 22
01:55 1019 30.09 848 25.04 6.7 44 40 -5.9 21.3
02:00 1019 30.09 849 25.07 6.9 44.5 42 -5.2 22.7
02:05 1019 30.09 849 25.07 6.6 43.9 42 -5.3 22.5
02:10 1019 30.09 848 25.04 6.4 43.5 41 -5.8 21.6
02:15 1019 30.09 849 25.07 6.5 43.7 43 -5.3 22.4
02:20 1019 30.09 849 25.07 6.3 43.3 41 -5.8 21.5
02:25 1019 30.09 849 25.07 6.4 43.5 43 -5.3 22.4
02:30 1019 30.09 849 25.07 5.9 42.6 45 -5.3 22.5
02:35 1019 30.09 849 25.07 5.8 42.4 45 -5.3 22.4
02:40 1019 30.09 849 25.07 5.6 42 44 -5.7 21.8
02:45 1019 30.09 849 25.07 5.7 42.2 45 -5.3 22.4
02:50 1020 30.12 849 25.07 5.9 42.6 41 -6.3 20.6
02:55 1020 30.12 849 25.07 7 44.6 38 -6.5 20.3
03:00 1020 30.12 849 25.07 7.6 45.6 39 -5.6 21.9
03:05 1020 30.12 849 25.07 7 44.6 38 -6.4 20.4
03:10 1020 30.12 849 25.07 7.5 45.4 38 -5.9 21.4
03:15 1020 30.12 849 25.07 7.6 45.8 38 -5.9 21.3
03:20 1020 30.12 849 25.07 7.3 45.1 40 -5.5 22
03:25 1020 30.12 849 25.07 6.4 43.6 42 -5.4 22.2
03:30 1020 30.12 849 25.07 6.2 43.2 42 -5.8 21.6
03:35 1020 30.12 849 25.07 6.3 43.3 41 -5.9 21.4
03:40 1020 30.12 849 25.07 6.4 43.6 40 -6 21.1
03:45 1020 30.12 849 25.07 6.6 43.9 40 -6 21.2
03:50 1020 30.12 849 25.07 6.6 44 39 -6.2 20.9
03:55 1020 30.12 849 25.07 6.7 44.1 39 -6.3 20.7
04:00 1020 30.12 849 25.07 7 44.6 39 -5.9 21.3
04:05 1020 30.12 849 25.07 6.3 43.4 43 -5.5 22.2
04:10 1020 30.12 849 25.07 5.7 42.2 45 -5.3 22.5
04:15 1020 30.12 849 25.07 5.1 41.1 47 -5.4 22.2
04:20 1020 30.12 849 25.07 4.5 40.1 48 -5.5 22.1
04:25 1020 30.12 849 25.07 4.4 40 48 -5.6 22
04:30 1020 30.12 849 25.07 4.4 39.8 48 -5.6 22
04:35 1020 30.12 849 25.07 4.5 40 48 -5.5 22
04:40 1020 30.12 849 25.07 4.3 39.8 50 -5.3 22.5
04:45 1020 30.12 849 25.07 4.4 39.9 46 -6.2 20.8
04:50 1020 30.12 849 25.07 5.6 42.2 41 -6.6 20
04:55 1020 30.12 849 25.07 6.2 43.2 41 -6.1 21.1
05:00 1020 30.12 850 25.1 6.1 42.9 42 -5.9 21.4
05:05 1020 30.12 850 25.1 6.2 43.1 42 -5.6 21.8
05:10 1020 30.12 850 25.1 6.6 43.8 42 -5.5 22.2
05:15 1020 30.12 850 25.1 5.8 42.5 45 -5.3 22.4
05:20 1020 30.12 850 25.1 5.1 41.2 45 -5.8 21.5
05:25 1021 30.15 850 25.1 5.3 41.5 45 -5.6 21.9
05:30 1021 30.15 850 25.1 5.3 41.5 44 -5.9 21.4
05:35 1021 30.15 850 25.1 5.8 42.4 42 -6 21.2
05:40 1021 30.15 850 25.1 6.2 43.2 41 -6 21.3
05:45 1021 30.15 850 25.1 6.1 43.1 42 -5.8 21.5
05:50 1021 30.15 850 25.1 6.1 43 42 -5.9 21.3
05:55 1021 30.15 850 25.1 6.1 43 42 -5.7 21.7
06:00 1021 30.15 850 25.1 5.7 42.2 43 -5.8 21.5
06:05 1021 30.15 850 25.1 5.6 42 43 -5.9 21.3
06:10 1021 30.15 850 25.1 5.4 41.8 44 -5.8 21.5
06:15 1021 30.15 850 25.1 5.1 41.2 43 -6.5 20.3
06:20 1021 30.15 850 25.1 5.1 41.1 45 -6 21.2
06:25 1021 30.15 850 25.1 4.4 40 47 -5.9 21.4
06:30 1021 30.15 850 25.1 4.1 39.4 47 -6.2 20.9
06:35 1021 30.15 850 25.1 4 39.2 48 -6.1 21
06:40 1021 30.15 851 25.13 4 39.2 47 -6.3 20.6
06:45 1021 30.15 851 25.13 4.5 40.1 44 -6.6 20.1
06:50 1021 30.15 851 25.13 4.9 40.8 44 -6.5 20.3
06:55 1021 30.15 851 25.13 5.3 41.5 43 -6.4 20.5
07:00 1021 30.15 851 25.13 4.9 40.9 45 -6.1 21
07:05 1021 30.15 851 25.13 5.3 41.5 42 -6.7 19.9
07:10 1021 30.15 851 25.13 5.5 41.9 44 -5.8 21.6
07:15 1021 30.15 851 25.13 4.5 40.2 48 -5.6 22
07:20 1022 30.18 851 25.13 4.3 39.8 47 -5.9 21.4
07:25 1022 30.18 851 25.13 4.7 40.4 46 -6.1 21.1
07:30 1022 30.18 851 25.13 5.1 41.1 45 -5.9 21.4
07:35 1022 30.18 851 25.13 5.1 41.1 44 -6.1 21.1
07:40 1022 30.18 851 25.13 5.2 41.3 44 -5.9 21.3
07:45 1022 30.18 851 25.13 5.2 41.4 43 -6.4 20.5
07:50 1022 30.18 851 25.13 5.5 42 43 -6.2 20.9
07:55 1022 30.18 851 25.13 5.5 41.9 42 -6.3 20.7
08:00 1022 30.18 851 25.13 5.6 42.1 41 -6.6 20.1
08:05 1022 30.18 851 25.13 5.8 42.5 41 -6.4 20.6
08:10 1022 30.18 851 25.13 5.7 42.3 42 -6.2 20.9
08:15 1022 30.18 851 25.13 5.6 42.1 42 -6.2 20.8
08:20 1022 30.18 851 25.13 5.4 41.8 42 -6.6 20.2
08:25 1022 30.18 851 25.13 5.7 42.2 42 -6.2 20.9
08:30 1022 30.18 851 25.13 5.6 42 43 -6.1 21.1
08:35 1022 30.18 851 25.13 6.1 42.9 41 -6.3 20.7
08:40 1022 30.18 851 25.13 6.1 42.9 40 -6.5 20.3
08:45 1022 30.18 852 25.16 6.4 43.6 40 -6.2 20.8
08:50 1022 30.18 852 25.16 6.1 43 42 -6 21.2
08:55 1023 30.21 852 25.16 6.2 43.1 41 -6.1 21
09:00 1023 30.21 852 25.16 6.5 43.7 39 -6.5 20.3
09:05 1023 30.21 852 25.16 6.8 44.3 38 -6.3 20.6
09:10 1023 30.21 852 25.16 6.6 43.9 41 -5.8 21.5
09:15 1023 30.21 852 25.16 6.4 43.5 40 -6.1 21
09:20 1023 30.21 852 25.16 6.3 43.3 43 -5.5 22.1
09:25 1023 30.21 852 25.16 6.1 43 43 -5.5 22.1
09:30 1023 30.21 852 25.16 6.2 43.2 43 -5.5 22.1
09:35 1023 30.21 852 25.16 6.6 43.9 41 -5.6 22
09:40 1023 30.21 852 25.16 7.3 45.1 39 -5.6 21.8
09:45 1023 30.21 852 25.16 8 46.5 38 -5.6 22
09:50 1023 30.21 852 25.16 8.1 46.6 37 -5.7 21.8
09:55 1023 30.21 852 25.16 8.2 46.8 37 -5.5 22.1
10:00 1023 30.21 852 25.16 8.5 47.3 37 -5.4 22.3
10:05 1023 30.21 852 25.16 9.4 48.9 34 -5.6 21.9
10:10 1023 30.21 852 25.16 10.2 50.4 33 -5.1 22.8
10:15 1023 30.21 852 25.16 10.4 50.8 34 -4.9 23.2
10:20 1023 30.21 852 25.16 10.6 51.2 33 -5.1 22.9
10:25 1023 30.21 852 25.16 10.9 51.6 33 -4.9 23.3
10:30 1023 30.21 852 25.16 11.2 52.2 33 -4.6 23.7
10:35 1023 30.21 852 25.16 11.7 53 31 -4.9 23.2
10:40 1023 30.21 852 25.16 11 51.7 33 -4.8 23.3
10:45 1023 30.21 852 25.16 11.3 52.4 31 -5.1 22.8
10:50 1023 30.21 852 25.16 11.3 52.4 32 -4.9 23.2
10:55 1023 30.21 852 25.16 11.6 52.8 31 -5 23
11:00 1023 30.21 852 25.16 12.2 54 31 -4.5 23.8
11:05 1023 30.21 852 25.16 12.8 55 30 -4.5 23.9
11:10 1023 30.21 852 25.16 13.9 57.1 28 -4.4 24.1
11:15 1023 30.21 852 25.16 13.8 56.8 29 -4.1 24.6
11:20 1023 30.21 852 25.16 13.8 56.9 28 -4.3 24.2
11:25 1023 30.21 852 25.16 14.3 57.7 27 -4.5 23.9
11:30 1023 30.21 852 25.16 14.8 58.6 26 -4.4 24
11:35 1023 30.21 852 25.16 14.7 58.4 26 -4.6 23.7
11:40 1023 30.21 852 25.16 15.1 59.2 25 -4.9 23.2
11:45 1023 30.21 852 25.16 15.3 59.5 24 -5.1 22.8
11:50 1023 30.21 852 25.16 15.2 59.4 24 -5.3 22.5
11:55 1023 30.21 852 25.16 16 60.9 23 -5 23
12:00 1023 30.21 852 25.16 16.4 61.6 23 -4.9 23.2
12:05 1023 30.21 852 25.16 16.8 62.2 22 -4.9 23.2
12:10 1023 30.21 852 25.16 17 62.6 21 -5.5 22.2
12:15 1023 30.21 852 25.16 16.6 61.9 21 -5.5 22.1
12:20 1023 30.21 852 25.16 17.5 63.6 20 -5.7 21.8
12:25 1023 30.21 852 25.16 18.3 65 19 -5.5 22.2
12:30 1023 30.21 852 25.16 18.5 65.3 19 -5.6 21.9
12:35 1023 30.21 852 25.16 18.9 65.9 19 -5.1 22.9
12:40 1023 30.21 852 25.16 18.7 65.7 20 -4.8 23.3
12:45 1023 30.21 852 25.16 18.7 65.6 19 -5.2 22.7
12:50 1022 30.18 852 25.16 18.5 65.4 20 -5 22.9
12:55 1022 30.18 852 25.16 18.8 65.9 19 -4.9 23.2
13:00 1022 30.18 852 25.16 19 66.2 19 -5 23.1
13:05 1022 30.18 852 25.16 18.5 65.3 20 -4.7 23.5
13:10 1022 30.18 852 25.16 18.5 65.2 19 -5.2 22.7
13:15 1022 30.18 852 25.16 19.1 66.5 18 -5.4 22.3
13:20 1022 30.18 852 25.16 18.6 65.5 21 -3.8 25.2
13:25 1022 30.18 852 25.16 16.9 62.5 23 -4.5 23.9
13:30 1022 30.18 852 25.16 16.9 62.4 22 -4.6 23.6
13:35 1022 30.18 851 25.13 17.9 64.2 21 -4.5 23.8
13:40 1022 30.18 851 25.13 17.2 62.9 22 -4.5 23.9
13:45 1022 30.18 851 25.13 18.4 65 20 -5 23
13:50 1022 30.18 851 25.13 19 66.2 20 -4.2 24.5
13:55 1022 30.18 851 25.13 19.3 66.8 19 -4.9 23.2
14:00 1022 30.18 851 25.13 18.6 65.4 21 -4.2 24.5
14:05 1022 30.18 851 25.13 18.8 65.8 20 -4.6 23.8
14:10 1022 30.18 851 25.13 18.6 65.5 21 -4.1 24.6
14:15 1022 30.18 851 25.13 19.4 66.9 19 -4.6 23.7
14:20 1022 30.18 851 25.13 19.9 67.9 19 -4.5 23.9
14:25 1022 30.18 851 25.13 20 68 19 -4.2 24.4
14:30 1022 30.18 851 25.13 19.2 66.6 18 -5.3 22.5
14:35 1022 30.18 851 25.13 19.6 67.2 18 -5.4 22.3
14:40 1022 30.18 851 25.13 20.1 68.1 17 -5.4 22.3
14:45 1022 30.18 851 25.13 20.4 68.7 17 -5.6 21.9
14:50 1022 30.18 851 25.13 20 68.1 18 -4.7 23.5
14:55 1022 30.18 851 25.13 19.1 66.4 18 -5.4 22.2
15:00 1022 30.18 851 25.13 19.7 67.4 18 -5 23.1
15:05 1022 30.18 851 25.13 19 66.2 18 -5.5 22.1
15:10 1022 30.18 851 25.13 19.6 67.3 18 -5.4 22.4
15:15 1022 30.18 851 25.13 20 68 17 -5.7 21.7
15:20 1022 30.18 851 25.13 19.6 67.2 17 -6.2 20.9
15:25 1022 30.18 851 25.13 20.5 68.8 16 -6.4 20.5
15:30 1022 30.18 851 25.13 20.3 68.6 17 -5.5 22.1
15:35 1022 30.18 851 25.13 19.5 67.1 17 -5.9 21.4
15:40 1022 30.18 851 25.13 19.3 66.7 18 -5.8 21.6
15:45 1022 30.18 851 25.13 19.7 67.4 16 -7.1 19.3
15:50 1022 30.18 851 25.13 20.3 68.5 15 -6.7 20
15:55 1022 30.18 851 25.13 20.3 68.5 17 -5.4 22.3
16:00 1022 30.18 851 25.13 20.1 68.1 17 -5.8 21.6
16:05 1022 30.18 851 25.13 20.1 68.2 16 -6 21.2
16:10 1022 30.18 851 25.13 19.6 67.2 15 -7.3 18.8
16:15 1022 30.18 851 25.13 20.1 68.2 16 -6.5 20.3
16:20 1022 30.18 851 25.13 19.4 67 17 -6.5 20.4
16:25 1022 30.18 851 25.13 19.3 66.8 17 -6.3 20.7
16:30 1022 30.18 851 25.13 19.7 67.4 15 -7.2 19
16:35 1022 30.18 851 25.13 19.2 66.6 17 -6.5 20.3
16:40 1022 30.18 851 25.13 18.8 65.8 18 -6.3 20.7
16:45 1022 30.18 851 25.13 18.8 65.8 17 -6.5 20.3
16:50 1022 30.18 851 25.13 18.8 65.8 17 -6.5 20.3
16:55 1022 30.18 851 25.13 18.7 65.6 17 -6.8 19.8
17:00 1022 30.18 851 25.13 18.7 65.6 17 -6.4 20.5
17:05 1022 30.18 851 25.13 18.6 65.6 17 -6.4 20.4
17:10 1022 30.18 851 25.13 18.4 65.1 18 -6.2 20.8
17:15 1022 30.18 851 25.13 18.1 64.6 18 -6.5 20.3
17:20 1022 30.18 851 25.13 18 64.4 18 -6.4 20.4
17:25 1022 30.18 851 25.13 18 64.4 18 -6.7 20
17:30 1022 30.18 851 25.13 18.1 64.5 18 -6.5 20.3
17:35 1022 30.18 851 25.13 17.9 64.1 18 -6.5 20.3
17:40 1022 30.18 851 25.13 17.6 63.8 19 -6.1 20.9
17:45 1022 30.18 852 25.16 17.5 63.5 19 -6.2 20.8
17:50 1022 30.18 852 25.16 17.3 63.1 25 -3 26.7
17:55 1022 30.18 852 25.16 16.5 61.7 26 -2.7 27.1
18:00 1022 30.18 852 25.16 15.9 60.7 28 -2.7 27.1
18:05 1022 30.18 852 25.16 15.5 59.9 28 -2.8 27
18:10 1022 30.18 852 25.16 14.9 58.7 30 -2.7 27.2
18:15 1023 30.21 852 25.16 14.4 57.8 29 -3.2 26.2
18:20 1023 30.21 852 25.16 14.2 57.5 30 -3 26.6
18:25 1023 30.21 852 25.16 13.8 56.9 32 -2.6 27.4
18:30 1023 30.21 852 25.16 13.1 55.5 33 -2.8 27
18:35 1023 30.21 852 25.16 12.4 54.4 36 -2.1 28.3
18:40 1023 30.21 852 25.16 11.8 53.3 35 -2.9 26.8
18:45 1023 30.21 852 25.16 11.7 53.1 36 -2.7 27.1
18:50 1023 30.21 852 25.16 11.7 53 36 -2.9 26.8
18:55 1023 30.21 852 25.16 11.5 52.8 38 -2.4 27.7
19:00 1023 30.21 852 25.16 10.7 51.3 39 -2.5 27.5
19:05 1023 30.21 852 25.16 10.8 51.4 37 -3.4 25.8
19:10 1023 30.21 852 25.16 11.1 51.9 35 -3.6 25.5
19:15 1023 30.21 852 25.16 11.5 52.7 33 -4.2 24.5
19:20 1023 30.21 852 25.16 11.9 53.3 33 -3.9 24.9
19:25 1023 30.21 853 25.19 12 53.5 33 -3.9 24.9
19:30 1023 30.21 853 25.19 12.2 54 32 -3.8 25.2
19:35 1023 30.21 853 25.19 12.2 54 32 -4.1 24.6
19:40 1023 30.21 853 25.19 11.9 53.5 33 -3.9 24.9
19:45 1023 30.21 853 25.19 11.6 53 32 -4.6 23.6
19:50 1023 30.21 853 25.19 12.1 53.8 31 -4.3 24.3
19:55 1023 30.21 853 25.19 11.8 53.2 32 -4.2 24.5
20:00 1024 30.24 853 25.19 11.8 53.2 32 -4.4 24.1
20:05 1024 30.24 853 25.19 11.8 53.3 31 -4.5 23.9
20:10 1024 30.24 853 25.19 12 53.6 31 -4.7 23.5
20:15 1024 30.24 853 25.19 11.8 53.2 32 -4.3 24.3
20:20 1024 30.24 853 25.19 11.2 52.2 33 -4.3 24.2
20:25 1024 30.24 853 25.19 10.8 51.5 34 -4.3 24.3
20:30 1024 30.24 853 25.19 10.2 50.4 35 -4.4 24
20:35 1024 30.24 853 25.19 10.1 50.2 34 -4.9 23.1
20:40 1024 30.24 853 25.19 10.5 50.9 33 -5 23
20:45 1024 30.24 853 25.19 10.6 51 34 -4.6 23.8
20:50 1024 30.24 853 25.19 9.9 49.9 36 -4.3 24.3
20:55 1024 30.24 853 25.19 9.7 49.5 36 -4.6 23.7
21:00 1024 30.24 853 25.19 9.5 49.2 37 -4.3 24.2
21:05 1024 30.24 853 25.19 9.5 49.1 37 -4.6 23.7
21:10 1024 30.24 853 25.19 9.3 48.7 37 -4.6 23.6
21:15 1024 30.24 853 25.19 9.3 48.7 36 -4.9 23.2
21:20 1024 30.24 853 25.19 9.5 49 35 -5.1 22.8
21:25 1024 30.24 853 25.19 9.5 49.1 35 -5.3 22.4
21:30 1024 30.24 853 25.19 9.5 49.1 35 -5.3 22.5
21:35 1024 30.24 853 25.19 9.6 49.3 34 -5.6 21.9
21:40 1024 30.24 853 25.19 9.6 49.4 34 -5.6 21.9
21:45 1024 30.24 853 25.19 9.7 49.5 33 -5.8 21.6
21:50 1024 30.24 853 25.19 9.6 49.3 33 -5.8 21.5
21:55 1024 30.24 853 25.19 9.5 49.2 33 -5.9 21.4
22:00 1024 30.24 853 25.19 9.4 48.9 33 -5.9 21.3
22:05 1024 30.24 853 25.19 9.6 49.2 33 -5.9 21.4
22:10 1024 30.24 853 25.19 9.5 49.2 33 -5.8 21.5
22:15 1024 30.24 853 25.19 9.2 48.6 33 -6 21.1
22:20 1024 30.24 853 25.19 9 48.2 34 -6.1 21
22:25 1024 30.24 853 25.19 9 48.1 34 -6 21.2
22:30 1024 30.24 853 25.19 9.2 48.5 33 -6.3 20.6
22:35 1024 30.24 853 25.19 9.6 49.2 32 -6.3 20.7
22:40 1024 30.24 853 25.19 9.4 48.9 33 -6 21.2
22:45 1024 30.24 853 25.19 9.2 48.6 33 -6.3 20.6
22:50 1024 30.24 853 25.19 9.5 49.2 32 -6.3 20.7
22:55 1024 30.24 853 25.19 9.7 49.5 32 -6.4 20.6
23:00 1024 30.24 853 25.19 9.8 49.6 31 -6.4 20.4
23:05 1024 30.24 853 25.19 10.1 50.1 31 -6.3 20.6
23:10 1024 30.24 853 25.19 10.1 50.2 31 -6.3 20.7
23:15 1024 30.24 853 25.19 10.1 50.2 30 -6.6 20.1
23:20 1024 30.24 853 25.19 10.1 50.2 31 -6.2 20.9
23:25 1024 30.24 854 25.22 9.7 49.5 32 -6.3 20.6
23:30 1024 30.24 854 25.22 9.6 49.2 31 -6.7 19.9
23:35 1024 30.24 854 25.22 9.9 49.7 30 -7 19.4
23:40 1024 30.24 854 25.22 10 49.9 30 -6.9 19.6
23:45 1024 30.24 854 25.22 9.8 49.7 30 -7.1 19.1
23:50 1024 30.24 854 25.22 9.7 49.4 30 -7.1 19.2
23:55 1024 30.24 854 25.22 9.6 49.2 30 -7.3 18.9
24:00 1025 30.27 854 25.22 9.4 48.9 30 -7.4 18.7